Item Display Status Inductive CT Sensor

Mooring Depth: 20 m

 

Deployed Sensor

  • Serial Number: 4202
  • NDBC Property Number: 24578
  • Start Date: 1/30/2015 (12:57:28 Z)
  • End Date: 2/26/2016 (16:48:00 Z)
Water Temperature [°C]     6 entries per hour
Showing data from 10/20/2015 (20:00:00 Z) to 10/19/2015 (00:00:01 Z)
Previous Next [ Day | 3-Days | 7-Days ]
First Last
Prev [ Day | 3-Days | 7-Days ] Next
First Last

Start Time:     :
End Time:     :     
Time (in GMT) :00 :50 :40 :30 :20 :10
Previous Next [ Day | 3-Days | 7-Days ]
First Last
Prev [ Day | 3-Days | 7-Days ] Next
First Last


123 => good data
MM => data is determined as missing
-- => data not received/configured
Back to Top Back to Top
10/20/2015 20:00 to 19:10 28.700 28.698 28.698 28.704 28.699 28.703
10/20/2015 19:00 to 18:10 28.704 28.702 28.704 28.703 28.703 28.699
10/20/2015 18:00 to 17:10 28.697 28.698 28.693 28.693 28.694 28.681
10/20/2015 17:00 to 16:10 28.682 28.680 28.676 28.670 28.665 28.671
10/20/2015 16:00 to 15:10 28.669 28.675 28.683 28.679 28.686 28.678
10/20/2015 15:00 to 14:10 28.686 28.691 28.687 28.695 28.689 28.684
10/20/2015 14:00 to 13:10 28.687 28.697 28.680 28.689 28.673 28.681
10/20/2015 13:00 to 12:10 28.676 28.685 28.670 28.690 28.684 28.689
10/20/2015 12:00 to 11:10 28.682 28.659 28.675 28.658 28.676 28.676
10/20/2015 11:00 to 10:10 28.682 28.679 28.680 28.661 28.648 28.650
10/20/2015 10:00 to 9:10 28.652 28.647 28.650 28.655 28.653 28.655
10/20/2015 09:00 to 8:10 28.654 28.658 28.658 28.658 28.655 28.657
10/20/2015 08:00 to 7:10 28.658 28.660 28.663 28.661 28.660 28.657
10/20/2015 07:00 to 6:10 28.656 28.655 28.654 28.655 28.654 28.655
10/20/2015 06:00 to 5:10 28.657 28.657 28.657 28.656 28.656 28.658
10/20/2015 05:00 to 4:10 28.657 28.657 28.659 28.662 28.661 28.662
10/20/2015 04:00 to 3:10 28.660 28.661 28.666 28.667 28.667 28.666
10/20/2015 03:00 to 2:10 28.666 28.666 28.668 28.668 28.666 28.669
10/20/2015 02:00 to 1:10 28.671 28.672 28.670 28.665 28.667 28.670
10/20/2015 01:00 to 0:10 28.673 28.677 28.681 28.685 28.686 28.687
10/20/2015 00:00 to 23:10 28.688 28.685 28.677 28.669 28.667 28.655
10/19/2015 23:00 to 22:10 28.644 28.642 28.636 28.634 28.633 28.628
10/19/2015 22:00 to 21:10 28.629 28.627 28.629 28.628 28.628 28.626
10/19/2015 21:00 to 20:10 28.621 28.618 28.617 28.617 28.615 28.615
10/19/2015 20:00 to 19:10 28.612 28.611 28.610 28.608 28.606 28.607
10/19/2015 19:00 to 18:10 28.608 28.608 28.606 28.606 28.607 28.606
10/19/2015 18:00 to 17:10 28.602 28.601 28.601 28.600 28.598 28.597
10/19/2015 17:00 to 16:10 28.598 28.596 28.596 28.595 28.594 28.597
10/19/2015 16:00 to 15:10 28.598 28.601 28.600 28.601 28.601 --
10/19/2015 15:00 to 14:10 28.603 28.600 28.603 28.603 28.604 28.610
10/19/2015 14:00 to 13:10 28.607 28.607 28.606 28.609 28.609 28.611
10/19/2015 13:00 to 12:10 28.613 28.616 28.618 28.617 28.619 28.619
10/19/2015 12:00 to 11:10 -- 28.625 28.625 28.627 28.629 28.630
10/19/2015 11:00 to 10:10 28.632 28.634 28.636 28.638 28.637 28.640
10/19/2015 10:00 to 9:10 28.643 28.641 28.644 28.644 28.644 28.643
10/19/2015 09:00 to 8:10 28.641 28.638 28.635 28.634 28.638 28.640
10/19/2015 08:00 to 7:10 28.640 28.641 28.645 28.649 28.647 28.648
10/19/2015 07:00 to 6:10 28.648 28.648 28.650 28.654 28.654 28.653
10/19/2015 06:00 to 5:10 28.652 28.645 28.646 28.651 28.647 28.647
10/19/2015 05:00 to 4:10 28.653 28.662 28.664 28.667 28.663 28.673
10/19/2015 04:00 to 3:10 28.690 28.685 28.672 28.661 28.666 28.650
10/19/2015 03:00 to 2:10 28.662 28.656 28.654 28.668 28.639 28.679
10/19/2015 02:00 to 1:10 28.651 28.658 28.639 28.646 28.628 28.629
10/19/2015 01:00 to 0:10 28.634 28.628 28.634 28.647 28.657 28.639

 

 

 

Conductivity [S/m]     6 entries per hour
Showing data from 10/20/2015 (20:00:00 Z) to 10/19/2015 (00:00:01 Z)
Previous Next [ Day | 3-Days | 7-Days ]
First Last
Prev [ Day | 3-Days | 7-Days ] Next
First Last

Start Time:     :
End Time:     :     
Time (in GMT) :00 :50 :40 :30 :20 :10
Previous Next [ Day | 3-Days | 7-Days ]
First Last
Prev [ Day | 3-Days | 7-Days ] Next
First Last


123 => good data
MM => data is determined as missing
-- => data not received/configured
Back to Top Back to Top
10/20/2015 20:00 to 19:10 5.67947 5.67922 5.67892 5.67983 5.67966 5.67991
10/20/2015 19:00 to 18:10 5.67980 5.67988 5.67974 5.68030 5.68046 5.67977
10/20/2015 18:00 to 17:10 5.68019 5.68002 5.67917 5.67977 5.67961 5.67909
10/20/2015 17:00 to 16:10 5.67782 5.67875 5.67842 5.67680 5.67592 5.67733
10/20/2015 16:00 to 15:10 5.67826 5.67663 5.67853 5.67859 5.67953 5.68013
10/20/2015 15:00 to 14:10 5.67961 5.68112 5.67914 5.68021 5.67809 5.68143
10/20/2015 14:00 to 13:10 5.67873 5.68140 5.67933 5.67947 5.67923 5.67818
10/20/2015 13:00 to 12:10 5.67887 5.67768 5.67876 5.67787 5.68016 5.67939
10/20/2015 12:00 to 11:10 5.68173 5.67964 5.67639 5.67785 5.67674 5.67782
10/20/2015 11:00 to 10:10 5.68044 5.67914 5.67997 5.67730 5.67606 5.67633
10/20/2015 10:00 to 9:10 5.67617 5.67595 5.67631 5.67642 5.67639 5.67699
10/20/2015 09:00 to 8:10 5.67708 5.67741 5.67774 5.67774 5.67760 5.67766
10/20/2015 08:00 to 7:10 5.67785 5.67812 5.67884 5.67865 5.67947 5.67903
10/20/2015 07:00 to 6:10 5.67826 5.67868 5.67892 5.67843 5.67856 5.67859
10/20/2015 06:00 to 5:10 5.67923 5.67925 5.67956 5.67953 5.67969 5.67997
10/20/2015 05:00 to 4:10 5.68011 5.67997 5.68022 5.68080 5.68102 5.68132
10/20/2015 04:00 to 3:10 5.68149 5.68143 5.68212 5.68311 5.68331 5.68347
10/20/2015 03:00 to 2:10 5.68355 5.68353 5.68388 5.68419 5.68424 5.68433
10/20/2015 02:00 to 1:10 5.68457 5.68468 5.68507 5.68469 5.68493 5.68562
10/20/2015 01:00 to 0:10 5.68590 5.68642 5.68742 5.68841 5.68874 5.68962
10/20/2015 00:00 to 23:10 5.68962 5.69073 5.68951 5.68849 5.68910 5.68819
10/19/2015 23:00 to 22:10 5.68673 5.68690 5.68637 5.68596 5.68610 5.68651
10/19/2015 22:00 to 21:10 5.68604 5.68588 5.68601 5.68635 5.68612 5.68604
10/19/2015 21:00 to 20:10 5.68582 5.68538 5.68497 5.68516 5.68513 5.68483
10/19/2015 20:00 to 19:10 5.68466 5.68461 5.68450 5.68447 5.68420 5.68433
10/19/2015 19:00 to 18:10 5.68514 5.68456 5.68428 5.68431 5.68442 5.68456
10/19/2015 18:00 to 17:10 5.68428 5.68417 5.68389 5.68376 5.68381 5.68378
10/19/2015 17:00 to 16:10 5.68356 5.68343 5.68354 5.68356 5.68282 5.68315
10/19/2015 16:00 to 15:10 5.68318 5.68403 5.68387 5.68406 5.68367 5.68362
10/19/2015 15:00 to 14:10 5.68436 5.68348 5.68428 5.68447 5.68428 5.68508
10/19/2015 14:00 to 13:10 5.68450 5.68439 5.68458 5.68502 5.68480 5.68511
10/19/2015 13:00 to 12:10 5.68519 5.68585 5.68549 5.68602 5.68593 5.68582
10/19/2015 12:00 to 11:10 5.68646 5.68670 5.68659 5.68693 5.68704 5.68695
10/19/2015 11:00 to 10:10 5.68759 5.68770 5.68817 5.68803 5.68833 5.68877
10/19/2015 10:00 to 9:10 5.68927 5.68875 5.68891 5.68927 5.68938 5.68913
10/19/2015 09:00 to 8:10 5.68930 5.68877 5.68889 5.68828 5.68861 5.68875
10/19/2015 08:00 to 7:10 5.68864 5.68985 5.68966 5.69021 5.69037 5.69007
10/19/2015 07:00 to 6:10 5.69062 5.69120 5.69004 5.69095 5.69167 5.69126
10/19/2015 06:00 to 5:10 5.69037 5.69049 5.69090 5.68974 5.69145 5.68952
10/19/2015 05:00 to 4:10 5.69311 5.69242 5.69187 5.69374 5.69034 5.69286
10/19/2015 04:00 to 3:10 5.69443 5.69598 5.69388 5.69278 5.69095 5.69073
10/19/2015 03:00 to 2:10 5.69142 5.69051 5.69375 5.69200 5.69189 5.69474
10/19/2015 02:00 to 1:10 5.68954 5.69339 5.68883 5.68927 5.69121 5.68761
10/19/2015 01:00 to 0:10 5.68864 5.68844 5.68822 5.69085 5.68946 5.68565

 

 

 

Salinity [psu]     6 entries per hour
Showing data from 10/20/2015 (20:00:00 Z) to 10/19/2015 (00:00:01 Z)
Previous Next [ Day | 3-Days | 7-Days ]
First Last
Prev [ Day | 3-Days | 7-Days ] Next
First Last

Start Time:     :
End Time:     :     
Time (in GMT) :00 :50 :40 :30 :20 :10
Previous Next [ Day | 3-Days | 7-Days ]
First Last
Prev [ Day | 3-Days | 7-Days ] Next
First Last


123 => good data
MM => data is determined as missing
-- => data not received/configured
Back to Top Back to Top
10/20/2015 20:00 to 19:10 34.87 34.87 34.87 34.87 34.87 34.87
10/20/2015 19:00 to 18:10 34.87 34.87 34.87 34.88 34.88 34.88
10/20/2015 18:00 to 17:10 34.88 34.88 34.88 34.88 34.88 34.88
10/20/2015 17:00 to 16:10 34.87 34.88 34.88 34.88 34.87 34.88
10/20/2015 16:00 to 15:10 34.89 34.87 34.88 34.88 34.88 34.89
10/20/2015 15:00 to 14:10 34.88 34.89 34.88 34.88 34.87 34.90
10/20/2015 14:00 to 13:10 34.88 34.89 34.89 34.88 34.89 34.88
10/20/2015 13:00 to 12:10 34.89 34.87 34.89 34.87 34.89 34.88
10/20/2015 12:00 to 11:10 34.90 34.90 34.87 34.89 34.87 34.88
10/20/2015 11:00 to 10:10 34.89 34.89 34.89 34.89 34.89 34.89
10/20/2015 10:00 to 9:10 34.88 34.89 34.89 34.88 34.89 34.89
10/20/2015 09:00 to 8:10 34.89 34.89 34.89 34.89 34.89 34.89
10/20/2015 08:00 to 7:10 34.89 34.89 34.90 34.90 34.90 34.90
10/20/2015 07:00 to 6:10 34.90 34.90 34.90 34.90 34.90 34.90
10/20/2015 06:00 to 5:10 34.90 34.90 34.90 34.91 34.91 34.91
10/20/2015 05:00 to 4:10 34.91 34.91 34.91 34.91 34.91 34.91
10/20/2015 04:00 to 3:10 34.92 34.91 34.92 34.92 34.92 34.92
10/20/2015 03:00 to 2:10 34.93 34.92 34.93 34.93 34.93 34.93
10/20/2015 02:00 to 1:10 34.93 34.93 34.93 34.93 34.93 34.94
10/20/2015 01:00 to 0:10 34.94 34.94 34.94 34.94 34.95 34.95
10/20/2015 00:00 to 23:10 34.95 34.96 34.96 34.96 34.96 34.97
10/19/2015 23:00 to 22:10 34.96 34.97 34.97 34.97 34.97 34.97
10/19/2015 22:00 to 21:10 34.97 34.97 34.97 34.97 34.97 34.97
10/19/2015 21:00 to 20:10 34.97 34.97 34.97 34.97 34.97 34.97
10/19/2015 20:00 to 19:10 34.97 34.97 34.97 34.97 34.97 34.97
10/19/2015 19:00 to 18:10 34.98 34.97 34.97 34.97 34.97 34.98
10/19/2015 18:00 to 17:10 34.98 34.98 34.98 34.98 34.98 34.98
10/19/2015 17:00 to 16:10 34.98 34.98 34.98 34.98 34.97 34.97
10/19/2015 16:00 to 15:10 34.97 34.98 34.98 34.98 34.97 34.97
10/19/2015 15:00 to 14:10 34.98 34.97 34.98 34.98 34.98 34.98
10/19/2015 14:00 to 13:10 34.98 34.97 34.98 34.98 34.98 34.98
10/19/2015 13:00 to 12:10 34.98 34.98 34.97 34.98 34.98 34.98
10/19/2015 12:00 to 11:10 34.98 34.98 34.98 34.98 34.98 34.98
10/19/2015 11:00 to 10:10 34.98 34.98 34.98 34.98 34.98 34.98
10/19/2015 10:00 to 9:10 34.98 34.98 34.98 34.98 34.98 34.98
10/19/2015 09:00 to 8:10 34.98 34.98 34.99 34.98 34.98 34.98
10/19/2015 08:00 to 7:10 34.98 34.99 34.98 34.98 34.99 34.98
10/19/2015 07:00 to 6:10 34.99 34.99 34.98 34.99 34.99 34.99
10/19/2015 06:00 to 5:10 34.98 34.99 34.99 34.98 34.99 34.98
10/19/2015 05:00 to 4:10 35.00 34.99 34.98 35.00 34.97 34.98
10/19/2015 04:00 to 3:10 34.98 35.00 34.99 34.99 34.98 34.99
10/19/2015 03:00 to 2:10 34.98 34.98 35.00 34.98 35.00 34.99
10/19/2015 02:00 to 1:10 34.98 35.00 34.98 34.98 35.01 34.98
10/19/2015 01:00 to 0:10 34.98 34.99 34.98 34.99 34.97 34.96